createdAt,value
2022-10-09T00:02:06.098Z,3.80
2022-10-09T00:04:33.524Z,4.00
2022-10-09T00:07:00.735Z,3.20
2022-10-09T00:09:28.341Z,3.30
2022-10-09T00:11:55.580Z,3.80
2022-10-09T00:14:22.789Z,3.87
2022-10-09T00:16:51.066Z,3.77
2022-10-09T00:19:18.341Z,4.90
2022-10-09T00:21:45.583Z,3.80
2022-10-09T00:24:12.776Z,3.77
2022-10-09T00:26:40.034Z,3.37
2022-10-09T00:29:07.431Z,3.40
2022-10-09T00:31:34.783Z,3.60
2022-10-09T00:34:02.060Z,3.40
2022-10-09T00:36:29.259Z,3.00
2022-10-09T00:38:56.844Z,2.40
2022-10-09T00:41:29.092Z,2.60
2022-10-09T00:43:57.841Z,2.50
2022-10-09T00:46:34.547Z,2.87
2022-10-09T00:49:11.096Z,2.53
2022-10-09T00:51:38.770Z,2.33
2022-10-09T00:54:07.975Z,2.80
2022-10-09T00:56:35.673Z,3.97
2022-10-09T00:59:03.660Z,2.80
2022-10-09T01:01:31.043Z,3.30
2022-10-09T01:03:58.375Z,3.83
2022-10-09T01:06:31.540Z,4.03
2022-10-09T01:09:03.332Z,3.70
2022-10-09T01:11:43.056Z,3.30
2022-10-09T01:14:15.348Z,3.00
2022-10-09T01:16:46.083Z,4.80
2022-10-09T01:19:21.210Z,4.67
2022-10-09T01:22:02.298Z,4.87
2022-10-09T01:24:35.606Z,4.27
2022-10-09T01:27:10.536Z,3.40
2022-10-09T01:29:47.040Z,3.20
2022-10-09T01:32:17.050Z,4.60
2022-10-09T01:34:46.209Z,3.87
2022-10-09T01:37:14.276Z,6.53
2022-10-09T01:39:42.501Z,4.20
2022-10-09T01:42:11.027Z,3.97
2022-10-09T01:44:38.633Z,4.20
2022-10-09T01:47:06.671Z,5.53
2022-10-09T01:49:42.339Z,3.87
2022-10-09T01:52:14.701Z,5.73
2022-10-09T01:54:52.551Z,8.27
2022-10-09T01:57:24.098Z,6.73
2022-10-09T01:59:53.298Z,5.10
2022-10-09T02:02:21.413Z,4.10
2022-10-09T02:04:50.562Z,3.90
2022-10-09T02:07:18.565Z,4.17
2022-10-09T02:09:46.742Z,3.73
2022-10-09T02:12:14.866Z,4.30
2022-10-09T02:14:42.129Z,4.23
2022-10-09T02:17:18.967Z,4.40
2022-10-09T02:19:51.813Z,5.10
2022-10-09T02:22:25.246Z,5.37
2022-10-09T02:24:52.817Z,5.83
2022-10-09T02:27:21.108Z,5.40
2022-10-09T02:29:49.103Z,6.20
2022-10-09T02:32:16.812Z,5.87
2022-10-09T02:34:44.253Z,5.33
2022-10-09T02:37:12.299Z,5.77
2022-10-09T02:39:39.648Z,5.90
2022-10-09T02:42:06.893Z,8.20
2022-10-09T02:44:34.611Z,7.70
2022-10-09T02:47:01.891Z,6.37
2022-10-09T02:49:29.223Z,6.10
2022-10-09T02:51:56.529Z,6.20
2022-10-09T02:54:24.280Z,6.17
2022-10-09T02:56:51.564Z,5.60
2022-10-09T02:59:18.778Z,5.47
2022-10-09T03:01:46.132Z,5.73
2022-10-09T03:04:13.393Z,5.43
2022-10-09T03:06:40.925Z,7.37
2022-10-09T03:09:08.279Z,5.93
2022-10-09T03:11:35.881Z,5.63
2022-10-09T03:14:03.135Z,5.27
2022-10-09T03:16:30.580Z,5.67
2022-10-09T03:18:58.661Z,5.73
2022-10-09T03:21:27.329Z,5.80
2022-10-09T03:23:55.199Z,6.00
2022-10-09T03:26:23.992Z,5.73
2022-10-09T03:28:52.518Z,4.97
2022-10-09T03:31:49.948Z,5.37
2022-10-09T03:34:08.809Z,5.30
2022-10-09T03:36:36.215Z,5.37
2022-10-09T03:39:03.823Z,5.17
2022-10-09T03:41:31.021Z,6.33
2022-10-09T03:43:58.387Z,5.90
2022-10-09T03:46:28.818Z,5.60
2022-10-09T03:48:56.141Z,6.10
2022-10-09T03:51:23.420Z,6.17
2022-10-09T03:53:50.806Z,6.13
2022-10-09T03:56:18.160Z,7.13
2022-10-09T03:58:45.488Z,6.70
2022-10-09T04:01:12.954Z,9.17
2022-10-09T04:03:40.262Z,6.87
2022-10-09T04:06:07.588Z,6.50
2022-10-09T04:08:35.871Z,6.87
2022-10-09T04:11:03.828Z,7.53
2022-10-09T04:13:31.089Z,6.90
2022-10-09T04:15:58.545Z,6.83
2022-10-09T04:18:26.116Z,7.83
2022-10-09T04:20:54.511Z,7.10
2022-10-09T04:23:26.191Z,6.77
2022-10-09T04:25:54.859Z,6.70
2022-10-09T04:28:23.680Z,6.63
2022-10-09T04:30:51.259Z,7.37
2022-10-09T04:33:18.807Z,6.83
2022-10-09T04:35:46.724Z,6.83
2022-10-09T04:38:13.977Z,6.63
2022-10-09T04:40:41.388Z,7.20
2022-10-09T04:43:08.865Z,7.07
2022-10-09T04:45:40.361Z,7.10
2022-10-09T04:48:07.900Z,7.00
2022-10-09T04:50:35.195Z,6.97
2022-10-09T04:53:02.430Z,6.67
2022-10-09T04:55:29.701Z,7.47
2022-10-09T04:57:57.026Z,6.73
2022-10-09T05:00:24.326Z,8.00
2022-10-09T05:02:51.888Z,7.50
2022-10-09T05:05:19.399Z,7.77
2022-10-09T05:07:46.645Z,8.20
2022-10-09T05:10:13.974Z,7.50
2022-10-09T05:12:41.290Z,7.47
2022-10-09T05:15:08.824Z,7.37
2022-10-09T05:17:36.298Z,8.53
2022-10-09T05:20:03.806Z,7.23
2022-10-09T05:22:31.050Z,7.73
2022-10-09T05:24:58.287Z,7.33
2022-10-09T05:27:25.936Z,7.13
2022-10-09T05:29:53.341Z,7.40
2022-10-09T05:32:20.630Z,6.93
2022-10-09T05:34:47.870Z,7.00
2022-10-09T05:37:15.149Z,7.33
2022-10-09T05:39:42.755Z,8.17
2022-10-09T05:42:10.128Z,7.57
2022-10-09T05:44:37.458Z,6.97
2022-10-09T05:47:04.793Z,6.90
2022-10-09T05:49:32.029Z,6.90
2022-10-09T05:52:00.026Z,7.37
2022-10-09T05:54:27.658Z,6.93
2022-10-09T05:56:55.031Z,7.87
2022-10-09T05:59:22.346Z,6.57
2022-10-09T06:01:51.029Z,6.57
2022-10-09T06:04:23.221Z,7.30
2022-10-09T06:06:51.569Z,6.57
2022-10-09T06:09:22.411Z,6.43
2022-10-09T06:11:51.044Z,7.10
2022-10-09T06:14:21.325Z,9.63
2022-10-09T06:16:48.940Z,12.00
2022-10-09T06:19:17.183Z,8.67
2022-10-09T06:21:45.496Z,11.00
2022-10-09T06:24:17.927Z,10.13
2022-10-09T06:26:45.332Z,7.93
2022-10-09T06:29:13.356Z,6.50
2022-10-09T06:31:40.986Z,6.80
2022-10-09T06:34:09.812Z,6.77
2022-10-09T06:36:37.601Z,7.00
2022-10-09T06:39:06.817Z,6.70
2022-10-09T06:41:34.509Z,6.63
2022-10-09T06:44:04.390Z,6.53
2022-10-09T06:46:36.575Z,7.60
2022-10-09T06:49:04.745Z,7.10
2022-10-09T06:51:32.468Z,7.17
2022-10-09T06:54:01.245Z,7.97
2022-10-09T06:56:29.884Z,9.53
2022-10-09T06:58:57.276Z,6.93
2022-10-09T07:01:31.072Z,6.80
2022-10-09T07:04:10.000Z,6.57
2022-10-09T07:06:42.385Z,6.40
2022-10-09T07:09:11.423Z,6.57
2022-10-09T07:11:43.387Z,7.57
2022-10-09T07:14:11.507Z,6.47
2022-10-09T07:16:40.006Z,6.83
2022-10-09T07:19:08.440Z,6.30
2022-10-09T07:21:36.036Z,6.73
2022-10-09T07:24:04.059Z,6.37
2022-10-09T07:26:32.174Z,6.63
2022-10-09T07:28:59.765Z,7.73
2022-10-09T07:31:27.113Z,7.70
2022-10-09T07:33:56.595Z,5.90
2022-10-09T07:36:24.247Z,6.07
2022-10-09T07:38:52.564Z,5.90
2022-10-09T07:41:19.846Z,5.47
2022-10-09T07:43:47.281Z,5.87
2022-10-09T07:46:15.695Z,5.70
2022-10-09T07:48:43.310Z,5.20
2022-10-09T07:51:12.844Z,6.17
2022-10-09T07:53:42.017Z,5.60
2022-10-09T07:56:14.273Z,5.63
2022-10-09T07:58:42.098Z,5.50
2022-10-09T08:01:10.117Z,5.73
2022-10-09T08:03:38.367Z,7.00
2022-10-09T08:06:06.459Z,7.97
2022-10-09T08:08:34.162Z,7.77
2022-10-09T08:11:01.597Z,7.80
2022-10-09T08:13:28.859Z,6.60
2022-10-09T08:15:59.610Z,6.80
2022-10-09T08:18:26.868Z,4.47
2022-10-09T08:21:01.998Z,4.37
2022-10-09T08:23:31.186Z,4.63
2022-10-09T08:25:58.690Z,4.43
2022-10-09T08:28:26.574Z,4.47
2022-10-09T08:30:55.083Z,6.73
2022-10-09T08:33:25.255Z,9.23
2022-10-09T08:35:54.413Z,5.67
2022-10-09T08:38:45.292Z,4.63
2022-10-09T08:41:15.166Z,5.53
2022-10-09T08:43:44.759Z,3.70
2022-10-09T08:46:20.912Z,3.70
2022-10-09T08:48:49.463Z,3.10
2022-10-09T08:51:21.439Z,3.47
2022-10-09T08:53:52.838Z,3.60
2022-10-09T08:56:20.284Z,3.20
2022-10-09T08:58:47.612Z,3.03
2022-10-09T09:01:15.153Z,3.10
2022-10-09T09:03:48.482Z,2.90
2022-10-09T09:06:24.968Z,2.90
2022-10-09T09:09:01.579Z,3.07
2022-10-09T09:11:32.315Z,2.80
2022-10-09T09:14:11.506Z,2.60
2022-10-09T09:16:57.582Z,2.30
2022-10-09T09:20:03.919Z,3.00
2022-10-09T09:22:32.965Z,3.10
2022-10-09T09:25:00.874Z,2.23
2022-10-09T09:27:32.931Z,2.20
2022-10-09T09:30:04.183Z,2.30
2022-10-09T09:32:32.522Z,2.87
2022-10-09T09:35:04.806Z,2.50
2022-10-09T09:37:32.160Z,2.27
2022-10-09T09:42:47.758Z,2.30
2022-10-09T09:45:20.661Z,2.30
2022-10-09T09:47:51.292Z,2.17
2022-10-09T09:50:46.011Z,2.37
2022-10-09T09:53:33.726Z,2.20
2022-10-09T09:56:01.083Z,1.90
2022-10-09T09:58:33.641Z,1.83
2022-10-09T10:01:06.526Z,2.10
2022-10-09T10:03:34.937Z,2.03
2022-10-09T10:06:02.283Z,2.03
2022-10-09T10:08:34.215Z,2.20
2022-10-09T10:11:03.955Z,2.13
2022-10-09T10:13:35.603Z,2.30
2022-10-09T10:16:03.531Z,3.40
2022-10-09T10:18:32.631Z,1.93
2022-10-09T10:21:13.800Z,1.90
2022-10-09T10:23:50.164Z,1.87
2022-10-09T10:26:17.467Z,2.00
2022-10-09T10:28:48.929Z,2.00
2022-10-09T10:31:24.240Z,1.75
2022-10-09T10:33:53.211Z,1.60
2022-10-09T10:36:20.697Z,1.90
2022-10-09T10:38:53.695Z,1.98
2022-10-09T10:41:25.002Z,2.03
2022-10-09T10:43:55.788Z,1.98
2022-10-09T10:46:24.274Z,1.50
2022-10-09T10:48:52.734Z,1.92
2022-10-09T10:51:32.471Z,2.05
2022-10-09T10:54:14.008Z,1.83
2022-10-09T10:56:43.416Z,1.97
2022-10-09T10:59:21.099Z,1.70
2022-10-09T11:01:54.859Z,1.70
2022-10-09T11:04:22.289Z,2.08
2022-10-09T11:07:08.730Z,1.70
2022-10-09T11:09:42.889Z,2.00
2022-10-09T11:12:19.334Z,1.80
2022-10-09T11:15:08.415Z,1.67
2022-10-09T11:17:35.700Z,1.70
2022-10-09T11:20:19.825Z,1.60
2022-10-09T11:23:07.473Z,1.88
2022-10-09T11:25:55.067Z,1.70
2022-10-09T11:28:34.280Z,1.52
2022-10-09T11:31:02.836Z,1.73
2022-10-09T11:33:33.900Z,1.50
2022-10-09T11:36:07.882Z,1.55
2022-10-09T11:38:40.647Z,1.60
2022-10-09T11:41:08.231Z,1.98
2022-10-09T11:43:41.571Z,1.58
2022-10-09T11:46:32.862Z,1.50
2022-10-09T11:49:07.249Z,1.48
2022-10-09T11:51:35.060Z,2.00
2022-10-09T11:54:05.442Z,1.55
2022-10-09T11:56:35.978Z,1.85
2022-10-09T11:59:05.548Z,2.30
2022-10-09T12:01:38.260Z,1.65
2022-10-09T12:04:08.612Z,1.52
2022-10-09T12:06:56.182Z,1.80
2022-10-09T12:09:25.150Z,2.00
2022-10-09T12:11:59.316Z,1.90
2022-10-09T12:14:28.965Z,1.80
2022-10-09T12:16:57.294Z,2.03
2022-10-09T12:19:40.929Z,2.33
2022-10-09T12:22:29.989Z,2.33
2022-10-09T12:24:59.946Z,2.20
2022-10-09T12:27:38.508Z,2.20
2022-10-09T12:30:29.109Z,2.20
2022-10-09T12:32:59.766Z,2.13
2022-10-09T12:35:35.303Z,2.00
2022-10-09T12:38:02.850Z,2.05
2022-10-09T12:40:32.579Z,2.17
2022-10-09T12:43:01.898Z,2.20
2022-10-09T12:45:30.763Z,3.47
2022-10-09T12:48:00.103Z,2.53
2022-10-09T12:50:35.051Z,2.70
2022-10-09T12:53:25.939Z,2.78
2022-10-09T12:55:53.234Z,2.65
2022-10-09T12:58:25.132Z,2.00
2022-10-09T13:00:57.605Z,3.13
2022-10-09T13:03:41.519Z,2.75
2022-10-09T13:06:15.307Z,3.05
2022-10-09T13:08:46.832Z,2.78
2022-10-09T13:11:32.063Z,2.72
2022-10-09T13:14:16.325Z,3.33
2022-10-09T13:16:52.013Z,2.90
2022-10-09T13:19:31.174Z,3.05
2022-10-09T13:22:02.196Z,2.80
2022-10-09T13:24:29.767Z,3.13
2022-10-09T13:26:57.891Z,2.60
2022-10-09T13:29:25.654Z,2.00
2022-10-09T13:31:53.038Z,2.13
2022-10-09T13:34:23.699Z,2.50
2022-10-09T13:36:51.562Z,2.20
2022-10-09T13:39:18.840Z,2.55
2022-10-09T13:41:49.159Z,2.40
2022-10-09T13:44:16.414Z,3.00
2022-10-09T13:46:43.796Z,3.45
2022-10-09T13:49:11.169Z,3.20
2022-10-09T13:51:38.718Z,2.90
2022-10-09T13:54:06.269Z,3.70
2022-10-09T13:56:33.487Z,2.85
2022-10-09T13:59:00.906Z,2.80
2022-10-09T14:01:29.452Z,2.92
2022-10-09T14:03:57.116Z,2.45
2022-10-09T14:06:27.246Z,2.40
2022-10-09T14:08:54.658Z,2.47
2022-10-09T14:11:22.092Z,2.65
2022-10-09T14:13:49.727Z,2.35
2022-10-09T14:16:17.693Z,2.70
2022-10-09T14:18:45.265Z,7.97
2022-10-09T14:21:15.402Z,3.00
2022-10-09T14:23:43.339Z,2.20
2022-10-09T14:26:10.620Z,2.78
2022-10-09T14:28:37.918Z,2.92
2022-10-09T14:31:06.250Z,3.05
2022-10-09T14:33:33.952Z,3.05
2022-10-09T14:36:13.066Z,2.70
2022-10-09T14:38:40.770Z,3.20
2022-10-09T14:41:09.069Z,3.00
2022-10-09T14:43:36.787Z,3.22
2022-10-09T14:46:16.952Z,3.15
2022-10-09T14:48:45.551Z,3.08
2022-10-09T14:51:14.154Z,3.40
2022-10-09T14:53:41.480Z,3.67
2022-10-09T14:56:10.795Z,3.00
2022-10-09T14:58:38.410Z,3.00
2022-10-09T15:01:06.417Z,3.03
2022-10-09T15:03:34.739Z,3.45
2022-10-09T15:06:03.481Z,4.20
2022-10-09T15:08:32.007Z,4.38
2022-10-09T15:10:59.432Z,3.67
2022-10-09T15:13:26.988Z,3.03
2022-10-09T15:16:00.103Z,3.22
2022-10-09T15:18:28.126Z,3.72
2022-10-09T15:20:55.369Z,3.40
2022-10-09T15:23:22.719Z,3.38
2022-10-09T15:25:54.151Z,3.30
2022-10-09T15:28:21.613Z,3.42
2022-10-09T15:30:50.743Z,3.40
2022-10-09T15:33:19.213Z,3.95
2022-10-09T15:35:46.796Z,4.03
2022-10-09T15:38:15.865Z,4.32
2022-10-09T15:40:47.915Z,5.20
2022-10-09T15:43:16.164Z,5.20
2022-10-09T15:45:46.788Z,4.68
2022-10-09T15:48:21.547Z,4.30
2022-10-09T15:50:51.596Z,4.07
2022-10-09T15:53:20.074Z,4.18
2022-10-09T15:55:48.616Z,6.10
2022-10-09T15:58:16.681Z,4.97
2022-10-09T16:00:47.581Z,5.20
2022-10-09T16:03:15.617Z,4.50
2022-10-09T16:05:44.486Z,4.15
2022-10-09T16:08:12.318Z,4.97
2022-10-09T16:10:49.061Z,5.22
2022-10-09T16:13:17.257Z,5.13
2022-10-09T16:15:48.400Z,5.63
2022-10-09T16:18:16.462Z,4.85
2022-10-09T16:20:44.103Z,5.18
2022-10-09T16:23:11.626Z,5.32
2022-10-09T16:25:39.435Z,4.88
2022-10-09T16:28:07.912Z,5.18
2022-10-09T16:30:45.070Z,5.55
2022-10-09T16:33:13.107Z,5.05
2022-10-09T16:35:40.761Z,5.10
2022-10-09T16:38:08.331Z,6.82
2022-10-09T16:41:00.826Z,5.63
2022-10-09T16:43:23.085Z,5.72
2022-10-09T16:45:50.344Z,5.15
2022-10-09T16:48:17.591Z,5.22
2022-10-09T16:50:44.834Z,6.10
2022-10-09T16:53:12.065Z,6.05
2022-10-09T16:55:39.549Z,5.78
2022-10-09T16:58:06.850Z,6.23
2022-10-09T17:00:34.165Z,6.30
2022-10-09T17:03:01.455Z,5.80
2022-10-09T17:05:28.707Z,6.88
2022-10-09T17:07:56.122Z,6.87
2022-10-09T17:10:23.440Z,6.20
2022-10-09T17:12:50.795Z,6.88
2022-10-09T17:15:18.339Z,6.77
2022-10-09T17:17:45.558Z,6.23
2022-10-09T17:20:13.114Z,6.53
2022-10-09T17:22:40.358Z,6.80
2022-10-09T17:25:07.855Z,6.97
2022-10-09T17:27:35.086Z,9.07
2022-10-09T17:30:02.394Z,7.67
2022-10-09T17:32:29.667Z,6.93
2022-10-09T17:34:57.367Z,6.90
2022-10-09T17:37:24.750Z,7.43
2022-10-09T17:39:52.463Z,6.57
2022-10-09T17:42:19.776Z,7.37
2022-10-09T17:44:47.072Z,6.47
2022-10-09T17:47:14.390Z,7.20
2022-10-09T17:49:41.705Z,7.33
2022-10-09T17:52:08.944Z,6.90
2022-10-09T17:54:36.209Z,7.20
2022-10-09T17:57:06.463Z,6.93
2022-10-09T17:59:37.292Z,7.50
2022-10-09T18:02:04.646Z,8.03
2022-10-09T18:04:32.074Z,7.80
2022-10-09T18:06:59.361Z,7.47
2022-10-09T18:09:26.576Z,7.47
2022-10-09T18:11:54.012Z,6.70
2022-10-09T18:14:21.253Z,6.97
2022-10-09T18:16:48.721Z,7.27
2022-10-09T18:19:18.541Z,6.83
2022-10-09T18:21:47.764Z,7.20
2022-10-09T18:24:15.741Z,9.80
2022-10-09T18:26:43.455Z,12.97
2022-10-09T18:29:10.860Z,9.70
2022-10-09T18:31:38.922Z,10.63
2022-10-09T18:34:06.240Z,7.63
2022-10-09T18:36:34.908Z,6.90
2022-10-09T18:39:04.914Z,7.50
2022-10-09T18:41:33.450Z,7.00
2022-10-09T18:44:01.590Z,7.17
2022-10-09T18:46:31.752Z,7.77
2022-10-09T18:48:59.493Z,8.00
2022-10-09T18:51:27.852Z,7.30
2022-10-09T18:53:57.382Z,7.33
2022-10-09T18:56:25.010Z,7.23
2022-10-09T18:58:53.388Z,7.20
2022-10-09T19:01:22.088Z,7.27
2022-10-09T19:03:50.390Z,7.87
2022-10-09T19:06:18.504Z,8.13
2022-10-09T19:08:46.751Z,7.23
2022-10-09T19:11:14.735Z,7.73
2022-10-09T19:13:43.179Z,7.43
2022-10-09T19:16:10.489Z,7.50
2022-10-09T19:18:38.175Z,8.83
2022-10-09T19:21:05.911Z,8.30
2022-10-09T19:23:33.230Z,7.90
2022-10-09T19:26:00.631Z,7.87
2022-10-09T19:28:31.216Z,8.40
2022-10-09T19:30:58.576Z,7.87
2022-10-09T19:33:25.891Z,8.00
2022-10-09T19:35:55.170Z,10.73
2022-10-09T19:38:22.906Z,10.90
2022-10-09T19:40:51.035Z,14.43
2022-10-09T19:43:18.712Z,13.40
2022-10-09T19:45:49.013Z,15.87
2022-10-09T19:48:17.182Z,11.67
2022-10-09T19:50:45.141Z,12.47
2022-10-09T19:53:13.195Z,11.20
2022-10-09T19:55:40.555Z,11.07
2022-10-09T19:58:07.996Z,11.37
2022-10-09T20:00:36.408Z,10.10
2022-10-09T20:03:03.844Z,11.20
2022-10-09T20:05:33.226Z,10.27
2022-10-09T20:08:00.468Z,9.70
2022-10-09T20:10:28.838Z,9.07
2022-10-09T20:12:56.348Z,9.57
2022-10-09T20:15:24.102Z,8.87
2022-10-09T20:17:51.511Z,10.07
2022-10-09T20:20:21.097Z,9.73
2022-10-09T20:22:49.819Z,9.47
2022-10-09T20:25:18.037Z,10.00
2022-10-09T20:27:45.292Z,10.10
2022-10-09T20:30:12.844Z,10.20
2022-10-09T20:32:40.101Z,9.93
2022-10-09T20:35:07.860Z,10.40
2022-10-09T20:37:35.162Z,10.63
2022-10-09T20:40:02.509Z,11.23
2022-10-09T20:42:30.046Z,10.80
2022-10-09T20:44:57.500Z,10.63
2022-10-09T20:47:24.773Z,11.70
2022-10-09T20:49:52.085Z,10.33
2022-10-09T20:52:19.377Z,10.93
2022-10-09T20:54:46.751Z,10.90
2022-10-09T20:57:14.092Z,11.00
2022-10-09T20:59:41.390Z,11.67
2022-10-09T21:02:08.793Z,11.23
2022-10-09T21:04:36.102Z,11.13
2022-10-09T21:07:03.311Z,10.83
2022-10-09T21:09:33.230Z,11.73
2022-10-09T21:12:00.835Z,11.43
2022-10-09T21:14:28.161Z,11.13
2022-10-09T21:16:55.354Z,10.53
2022-10-09T21:19:22.606Z,11.20
2022-10-09T21:21:51.133Z,11.47
2022-10-09T21:24:18.760Z,11.57
2022-10-09T21:26:47.482Z,12.10
2022-10-09T21:29:15.030Z,10.97
2022-10-09T21:31:42.652Z,11.93
2022-10-09T21:34:10.133Z,12.60
2022-10-09T21:36:39.300Z,12.67
2022-10-09T21:39:14.447Z,12.50
2022-10-09T21:41:42.070Z,11.80
2022-10-09T21:44:09.318Z,12.43
2022-10-09T21:46:37.724Z,12.90
2022-10-09T21:49:07.674Z,13.07
2022-10-09T21:51:35.147Z,11.87
2022-10-09T21:54:02.561Z,12.33
2022-10-09T21:56:29.782Z,12.60
2022-10-09T21:58:56.959Z,12.63
2022-10-09T22:01:24.262Z,13.30
2022-10-09T22:03:51.549Z,12.67
2022-10-09T22:06:19.489Z,13.23
2022-10-09T22:08:48.001Z,13.33
2022-10-09T22:11:15.715Z,13.43
2022-10-09T22:13:43.335Z,12.63
2022-10-09T22:16:11.954Z,13.40
2022-10-09T22:18:39.195Z,12.77
2022-10-09T22:21:08.311Z,13.47
2022-10-09T22:23:35.709Z,12.70
2022-10-09T22:26:05.283Z,13.73
2022-10-09T22:28:32.698Z,14.30
2022-10-09T22:31:06.483Z,14.33
2022-10-09T22:33:33.992Z,14.37
2022-10-09T22:36:08.759Z,14.50
2022-10-09T22:38:36.499Z,14.30
2022-10-09T22:41:08.565Z,14.60
2022-10-09T22:43:36.134Z,14.97
2022-10-09T22:46:07.392Z,14.67
2022-10-09T22:48:35.392Z,15.73
2022-10-09T22:51:06.799Z,15.50
2022-10-09T22:53:34.712Z,16.43
2022-10-09T22:56:02.164Z,16.27
2022-10-09T22:58:29.452Z,15.33
2022-10-09T23:00:56.914Z,15.27
2022-10-09T23:03:24.234Z,15.57
2022-10-09T23:05:51.424Z,16.37
2022-10-09T23:08:18.670Z,16.53
2022-10-09T23:10:45.900Z,16.03
2022-10-09T23:13:13.165Z,15.87
2022-10-09T23:15:40.523Z,16.27
2022-10-09T23:18:07.804Z,16.40
2022-10-09T23:20:36.600Z,17.87
2022-10-09T23:23:04.242Z,17.63
2022-10-09T23:25:31.480Z,17.60
2022-10-09T23:27:58.794Z,16.60
2022-10-09T23:30:25.991Z,17.33
2022-10-09T23:32:53.533Z,17.00
2022-10-09T23:35:20.768Z,16.80
2022-10-09T23:37:48.059Z,17.47
2022-10-09T23:40:15.627Z,18.17
2022-10-09T23:42:42.870Z,16.97
2022-10-09T23:45:10.510Z,16.63
2022-10-09T23:47:37.930Z,16.60
2022-10-09T23:50:06.204Z,16.57
2022-10-09T23:52:33.566Z,17.57
2022-10-09T23:55:00.824Z,17.20
2022-10-09T23:57:28.571Z,16.70
2022-10-09T23:59:55.807Z,16.77
